createdAt,value
2022-12-31T16:13:02.970Z,59.80
2022-12-31T16:15:33.411Z,68.85
2022-12-31T16:18:05.721Z,67.72
2022-12-31T16:20:35.042Z,65.28
2022-12-31T16:23:04.256Z,68.32
2022-12-31T16:25:33.950Z,59.03
2022-12-31T16:28:04.135Z,59.17
2022-12-31T16:30:36.634Z,59.65
2022-12-31T16:33:12.677Z,57.90
2022-12-31T16:35:41.656Z,54.40
2022-12-31T16:38:16.822Z,52.95
2022-12-31T16:41:25.211Z,60.50
2022-12-31T16:43:53.782Z,59.47
2022-12-31T16:46:27.418Z,56.08
2022-12-31T16:49:17.553Z,60.13
2022-12-31T16:51:45.910Z,56.30
2022-12-31T16:54:28.779Z,54.33
2022-12-31T16:56:59.702Z,57.92
2022-12-31T16:59:35.383Z,57.42
2022-12-31T17:02:10.358Z,59.13
2022-12-31T17:04:43.226Z,57.03
2022-12-31T17:07:30.914Z,53.20
2022-12-31T17:10:35.078Z,53.03
2022-12-31T17:13:29.652Z,53.47
2022-12-31T17:16:00.363Z,51.55
2022-12-31T17:18:36.643Z,49.00
2022-12-31T17:21:11.827Z,52.55
2022-12-31T17:23:42.411Z,50.92
2022-12-31T17:26:14.660Z,46.45
2022-12-31T17:28:47.593Z,50.92
2022-12-31T17:31:39.548Z,52.55
2022-12-31T17:34:13.933Z,50.88
2022-12-31T17:36:59.191Z,51.63
2022-12-31T17:39:40.274Z,50.75
2022-12-31T17:42:10.683Z,50.70
2022-12-31T17:44:45.563Z,49.88
2022-12-31T17:47:17.433Z,49.47
2022-12-31T17:49:46.620Z,49.65
2022-12-31T17:52:16.869Z,49.33
2022-12-31T17:54:45.101Z,50.00
2022-12-31T17:57:27.918Z,49.17
2022-12-31T17:59:56.585Z,50.97
2022-12-31T18:02:24.902Z,48.50
2022-12-31T18:04:56.365Z,48.65
2022-12-31T18:07:27.239Z,50.53
2022-12-31T18:09:55.961Z,54.13
2022-12-31T18:12:24.652Z,49.10
2022-12-31T18:14:53.224Z,48.35
2022-12-31T18:17:21.905Z,50.45
2022-12-31T18:20:09.652Z,47.38
2022-12-31T18:22:40.100Z,46.00
2022-12-31T18:25:14.329Z,50.47
2022-12-31T18:27:43.250Z,49.65
2022-12-31T18:30:12.969Z,48.92
2022-12-31T18:32:42.267Z,47.20
2022-12-31T18:35:48.572Z,50.17
2022-12-31T18:38:18.019Z,50.67
2022-12-31T18:40:55.129Z,50.92
2022-12-31T18:43:23.741Z,48.95
2022-12-31T18:45:53.052Z,51.17
2022-12-31T18:48:21.827Z,51.45
2022-12-31T18:50:51.054Z,50.30
2022-12-31T18:53:22.470Z,55.03
2022-12-31T18:55:53.502Z,55.42
2022-12-31T18:58:21.797Z,51.83
2022-12-31T19:00:51.389Z,54.67
2022-12-31T19:03:22.533Z,54.17
2022-12-31T19:05:52.711Z,52.60
2022-12-31T19:08:22.945Z,50.70
2022-12-31T19:10:52.925Z,56.50
2022-12-31T19:13:21.570Z,50.72
2022-12-31T19:15:52.330Z,55.30
2022-12-31T19:18:20.659Z,54.80
2022-12-31T19:20:49.338Z,54.08
2022-12-31T19:23:20.814Z,57.03
2022-12-31T19:25:49.838Z,55.05
2022-12-31T19:28:26.745Z,54.10
2022-12-31T19:33:22.947Z,58.67
2022-12-31T19:35:51.251Z,54.17
2022-12-31T19:38:23.943Z,60.95
2022-12-31T19:40:53.622Z,54.70
2022-12-31T19:43:24.238Z,55.63
2022-12-31T19:45:53.169Z,59.88
2022-12-31T19:48:30.489Z,59.97
2022-12-31T19:51:01.120Z,55.28
2022-12-31T19:53:29.826Z,61.83
2022-12-31T19:55:58.407Z,58.60
2022-12-31T19:58:28.383Z,59.40
2022-12-31T20:01:02.775Z,57.33
2022-12-31T20:03:33.113Z,60.33
2022-12-31T20:06:07.839Z,60.33
2022-12-31T20:08:38.546Z,58.95
2022-12-31T20:11:13.455Z,57.53
2022-12-31T20:13:42.366Z,56.58
2022-12-31T20:16:16.109Z,56.80
2022-12-31T20:18:46.790Z,58.67
2022-12-31T20:21:19.363Z,55.70
2022-12-31T20:23:50.065Z,56.22
2022-12-31T20:26:20.143Z,60.55
2022-12-31T20:28:48.595Z,58.03
2022-12-31T20:31:19.986Z,58.53
2022-12-31T20:33:48.838Z,58.90
2022-12-31T20:36:43.400Z,62.88
2022-12-31T20:39:12.167Z,58.88
2022-12-31T20:41:40.888Z,59.70
2022-12-31T20:44:09.707Z,56.03
2022-12-31T20:46:38.476Z,57.95
2022-12-31T20:49:07.087Z,58.28
2022-12-31T20:51:35.787Z,59.90
2022-12-31T20:54:09.244Z,56.08
2022-12-31T20:56:40.194Z,58.28
2022-12-31T20:59:10.708Z,59.78
2022-12-31T21:02:11.617Z,55.78
2022-12-31T21:04:28.536Z,63.08
2022-12-31T21:06:57.338Z,58.90
2022-12-31T21:09:26.000Z,61.83
2022-12-31T21:12:12.962Z,62.90
2022-12-31T21:14:44.689Z,60.10
2022-12-31T21:17:13.776Z,56.50
2022-12-31T21:19:41.882Z,54.20
2022-12-31T21:22:10.635Z,56.05
2022-12-31T21:24:40.012Z,57.13
2022-12-31T21:27:08.410Z,55.22
2022-12-31T21:29:55.635Z,54.47
2022-12-31T21:32:26.153Z,62.33
2022-12-31T21:35:31.186Z,58.63
2022-12-31T21:37:58.953Z,60.47
2022-12-31T21:40:30.445Z,61.43
2022-12-31T21:42:59.380Z,62.10
2022-12-31T21:45:28.213Z,58.08
2022-12-31T21:48:18.546Z,59.55
2022-12-31T21:50:52.395Z,57.03
2022-12-31T21:53:26.255Z,61.25
2022-12-31T21:56:09.870Z,56.03
2022-12-31T21:58:41.401Z,60.22
2022-12-31T22:01:40.145Z,57.20
2022-12-31T22:04:28.277Z,59.53
2022-12-31T22:06:57.638Z,56.10
2022-12-31T22:09:25.807Z,57.15
2022-12-31T22:11:54.307Z,56.67
2022-12-31T22:14:22.844Z,60.47
2022-12-31T22:16:51.543Z,56.03
2022-12-31T22:19:19.859Z,56.35
2022-12-31T22:21:48.219Z,54.05
2022-12-31T22:24:16.754Z,57.00
2022-12-31T22:26:46.952Z,58.58
2022-12-31T22:29:15.833Z,52.22
2022-12-31T22:31:44.539Z,54.15
2022-12-31T22:34:12.747Z,55.40
2022-12-31T22:36:40.974Z,53.05
2022-12-31T22:39:44.428Z,54.28
2022-12-31T22:42:03.819Z,52.92
2022-12-31T22:44:31.971Z,54.13
2022-12-31T22:47:00.354Z,51.72
2022-12-31T22:49:28.648Z,50.28
2022-12-31T22:51:59.902Z,54.45
2022-12-31T22:54:31.339Z,60.22
2022-12-31T22:57:00.025Z,58.55
2022-12-31T22:59:28.329Z,59.90
2022-12-31T23:01:56.995Z,60.63
2022-12-31T23:04:25.387Z,57.60
2022-12-31T23:06:53.646Z,61.65
2022-12-31T23:09:40.832Z,63.05
2022-12-31T23:12:12.135Z,55.80
2022-12-31T23:14:59.067Z,57.13
2022-12-31T23:17:46.704Z,58.95
2022-12-31T23:23:10.171Z,54.20
2022-12-31T23:25:41.678Z,52.80
2022-12-31T23:28:12.838Z,47.95
2022-12-31T23:30:41.672Z,54.65
2022-12-31T23:33:18.300Z,51.28
2022-12-31T23:35:47.142Z,49.30
2022-12-31T23:38:18.586Z,54.75
2022-12-31T23:40:47.474Z,55.70
2022-12-31T23:43:21.565Z,66.47
2022-12-31T23:45:53.973Z,76.57
2022-12-31T23:48:22.610Z,79.03
2022-12-31T23:50:53.990Z,78.00
2022-12-31T23:53:25.692Z,88.43
2022-12-31T23:55:54.825Z,79.70
2022-12-31T23:58:23.650Z,77.10
